createdAt,value
2018-05-29T00:02:19.832Z,99490.06
2018-05-29T00:08:24.308Z,99483.58
2018-05-29T00:14:28.672Z,99481.30
2018-05-29T00:20:33.215Z,99479.89
2018-05-29T00:26:38.339Z,99473.91
2018-05-29T00:32:42.690Z,99466.34
2018-05-29T00:38:47.128Z,99463.73
2018-05-29T00:44:51.745Z,99462.43
2018-05-29T00:50:56.194Z,99451.33
2018-05-29T00:57:00.514Z,99441.29
2018-05-29T01:03:04.941Z,99430.48
2018-05-29T01:09:09.294Z,99427.37
2018-05-29T01:15:13.660Z,99418.28
2018-05-29T01:21:18.029Z,99417.28
2018-05-29T01:27:22.514Z,99421.06
2018-05-29T01:33:26.886Z,99420.52
2018-05-29T01:39:31.233Z,99421.54
2018-05-29T01:45:35.580Z,99415.56
2018-05-29T01:51:40.707Z,99412.63
2018-05-29T01:57:45.061Z,99399.68
2018-05-29T02:03:49.422Z,99401.36
2018-05-29T02:09:54.921Z,99400.97
2018-05-29T02:16:00.049Z,99401.00
2018-05-29T02:22:04.408Z,99397.60
2018-05-29T02:28:08.759Z,99402.11
2018-05-29T02:34:13.868Z,99390.94
2018-05-29T02:40:18.297Z,99392.70
2018-05-29T02:46:23.459Z,99390.87
2018-05-29T02:52:27.813Z,99386.98
2018-05-29T02:58:33.348Z,99393.14
2018-05-29T03:04:37.725Z,99391.32
2018-05-29T03:10:42.192Z,99388.82
2018-05-29T03:16:46.560Z,99400.37
2018-05-29T03:22:51.046Z,99404.48
2018-05-29T03:28:56.227Z,99404.50
2018-05-29T03:35:00.603Z,99407.65
2018-05-29T03:41:04.991Z,99407.63
2018-05-29T03:47:09.393Z,99412.32
2018-05-29T03:53:13.750Z,99410.88
2018-05-29T03:59:18.098Z,99398.78
2018-05-29T04:05:23.494Z,99400.26
2018-05-29T04:11:27.876Z,99404.73
2018-05-29T04:17:32.232Z,99409.15
2018-05-29T04:23:37.351Z,99397.83
2018-05-29T04:29:42.643Z,99400.43
2018-05-29T04:35:47.006Z,99395.59
2018-05-29T04:41:51.362Z,99385.13
2018-05-29T04:47:55.705Z,99387.33
2018-05-29T04:54:00.880Z,99379.86
2018-05-29T05:00:05.236Z,99375.52
2018-05-29T05:06:09.592Z,99376.28
2018-05-29T05:12:13.932Z,99373.83
2018-05-29T05:18:19.235Z,99372.62
2018-05-29T05:24:24.361Z,99378.28
2018-05-29T05:30:28.788Z,99372.61
2018-05-29T05:36:33.145Z,99374.64
2018-05-29T05:42:37.508Z,99374.13
2018-05-29T05:48:41.867Z,99377.80
2018-05-29T05:54:46.225Z,99370.89
2018-05-29T06:00:51.541Z,99365.03
2018-05-29T06:06:55.893Z,99359.63
2018-05-29T06:13:01.050Z,99347.64
2018-05-29T06:19:05.446Z,99344.69
2018-05-29T06:25:10.568Z,99332.02
2018-05-29T06:31:14.945Z,99335.24
2018-05-29T06:37:19.352Z,99339.34
2018-05-29T06:43:24.870Z,99342.35
2018-05-29T06:49:29.242Z,99342.30
2018-05-29T06:55:33.606Z,99338.00
2018-05-29T07:01:37.952Z,99339.91
2018-05-29T07:07:43.036Z,99328.64
2018-05-29T07:13:47.449Z,99324.38
2018-05-29T07:19:52.049Z,99320.88
2018-05-29T07:25:56.440Z,99321.91
2018-05-29T07:32:01.560Z,99315.07
2018-05-29T07:38:05.922Z,99303.81
2018-05-29T07:44:10.288Z,99307.70
2018-05-29T07:50:15.421Z,99301.30
2018-05-29T07:56:19.824Z,99293.22
2018-05-29T08:02:24.201Z,99296.39
2018-05-29T08:08:28.917Z,99290.02
2018-05-29T08:14:34.046Z,99278.16
2018-05-29T08:20:38.418Z,99277.44
2018-05-29T08:26:42.802Z,99273.61
2018-05-29T08:32:47.161Z,99271.10
2018-05-29T08:38:51.752Z,99259.17
2018-05-29T08:44:56.137Z,99252.27
2018-05-29T08:51:00.499Z,99250.02
2018-05-29T08:57:04.855Z,99254.48
2018-05-29T09:03:09.169Z,99241.63
2018-05-29T09:09:14.320Z,99242.14
2018-05-29T09:15:18.677Z,99228.48
2018-05-29T09:21:23.985Z,99223.48
2018-05-29T09:27:29.126Z,99226.01
2018-05-29T09:33:33.476Z,99222.44
2018-05-29T09:39:37.941Z,99206.78
2018-05-29T09:45:42.315Z,99210.95
2018-05-29T09:51:46.652Z,99211.23
2018-05-29T09:57:51.273Z,99205.80
2018-05-29T10:03:55.941Z,99200.53
2018-05-29T10:10:01.257Z,99195.38
2018-05-29T10:16:05.626Z,99183.59
2018-05-29T10:22:09.984Z,99179.91
2018-05-29T10:28:14.336Z,99178.06
2018-05-29T10:34:19.677Z,99170.72
2018-05-29T10:40:24.070Z,99167.38
2018-05-29T10:46:28.394Z,99158.18
2018-05-29T10:52:32.948Z,99153.78
2018-05-29T10:58:37.279Z,99137.20
2018-05-29T11:04:41.598Z,99129.61
2018-05-29T11:10:45.981Z,99130.28
2018-05-29T11:16:50.345Z,99120.77
2018-05-29T11:22:54.981Z,99116.73
2018-05-29T11:28:59.343Z,99111.73
2018-05-29T11:35:03.705Z,99106.16
2018-05-29T11:41:08.833Z,99091.50
2018-05-29T11:47:13.195Z,99090.49
2018-05-29T11:53:17.546Z,99087.52
2018-05-29T11:59:23.151Z,99079.15
2018-05-29T12:05:27.686Z,99076.35
2018-05-29T12:11:33.545Z,99070.63
2018-05-29T12:17:38.682Z,99057.00
2018-05-29T12:23:43.044Z,99048.28
2018-05-29T12:29:47.350Z,99061.25
2018-05-29T12:35:53.225Z,99064.12
2018-05-29T12:41:58.525Z,99050.44
2018-05-29T12:48:02.910Z,99041.84
2018-05-29T12:54:07.257Z,99051.92
2018-05-29T13:00:11.614Z,99050.92
2018-05-29T13:06:16.718Z,99057.30
2018-05-29T13:12:21.097Z,99042.66
2018-05-29T13:18:25.516Z,99032.72
2018-05-29T13:24:29.886Z,99034.94
2018-05-29T13:30:35.752Z,99014.63
2018-05-29T13:36:40.114Z,98994.54
2018-05-29T13:42:44.581Z,98981.33
2018-05-29T13:48:48.999Z,98978.06
2018-05-29T13:54:53.463Z,98990.95
2018-05-29T14:00:57.873Z,99002.09
2018-05-29T14:07:02.221Z,99000.48
2018-05-29T14:13:06.575Z,98986.06
2018-05-29T14:19:11.711Z,98969.19
2018-05-29T14:25:16.083Z,98976.59
2018-05-29T14:31:20.710Z,98973.31
2018-05-29T14:37:25.322Z,98963.81
2018-05-29T14:43:29.664Z,98959.17
2018-05-29T14:49:34.785Z,98943.77
2018-05-29T14:55:39.136Z,98949.37
2018-05-29T15:01:44.249Z,98957.41
2018-05-29T15:07:48.836Z,98946.19
2018-05-29T15:13:53.386Z,98937.75
2018-05-29T15:19:58.491Z,98949.70
2018-05-29T15:26:02.893Z,98960.19
2018-05-29T15:32:07.977Z,98955.95
2018-05-29T15:38:12.365Z,98927.88
2018-05-29T15:44:16.688Z,98921.98
2018-05-29T15:50:21.526Z,98933.92
2018-05-29T15:56:26.165Z,98941.83
2018-05-29T16:02:30.548Z,98959.57
2018-05-29T16:08:34.994Z,98981.69
2018-05-29T16:14:39.410Z,98998.72
2018-05-29T16:20:43.752Z,98994.54
2018-05-29T16:26:48.897Z,98990.91
2018-05-29T16:32:53.791Z,98982.20
2018-05-29T16:38:58.164Z,98972.31
2018-05-29T16:45:02.598Z,98976.69
2018-05-29T16:51:06.924Z,98975.56
2018-05-29T16:57:12.076Z,98966.64
2018-05-29T17:03:16.463Z,98963.42
2018-05-29T17:09:20.867Z,98960.25
2018-05-29T17:15:25.362Z,98961.98
2018-05-29T17:21:30.421Z,98970.09
2018-05-29T17:27:34.793Z,98981.55
2018-05-29T17:33:39.189Z,98992.28
2018-05-29T17:39:43.541Z,98997.70
2018-05-29T17:45:47.888Z,98998.17
2018-05-29T17:51:53.341Z,99007.57
2018-05-29T17:57:58.532Z,98999.19
2018-05-29T18:04:02.883Z,98997.63
2018-05-29T18:10:07.238Z,98986.30
2018-05-29T18:16:11.591Z,98979.06
2018-05-29T18:22:16.750Z,98974.66
2018-05-29T18:28:21.160Z,98968.83
2018-05-29T18:34:26.285Z,98962.59
2018-05-29T18:40:30.638Z,98961.48
2018-05-29T18:46:35.791Z,98966.14
2018-05-29T18:52:40.161Z,98966.80
2018-05-29T18:58:44.559Z,98955.80
2018-05-29T19:04:48.937Z,98947.88
2018-05-29T19:10:54.273Z,98961.02
2018-05-29T19:16:58.664Z,98949.19
2018-05-29T19:23:03.096Z,98948.24
2018-05-29T19:29:07.365Z,98954.92
2018-05-29T19:35:11.759Z,98962.09
2018-05-29T19:41:16.127Z,98971.63
2018-05-29T19:47:20.452Z,99026.81
2018-05-29T19:53:25.610Z,99062.48
2018-05-29T19:59:30.035Z,99087.14
2018-05-29T20:05:34.372Z,99112.79
2018-05-29T20:11:38.739Z,99124.77
2018-05-29T20:17:43.080Z,99115.23
2018-05-29T20:23:47.466Z,99130.67
2018-05-29T20:29:52.582Z,99117.81
2018-05-29T20:35:56.944Z,99123.67
2018-05-29T20:42:01.282Z,99126.07
2018-05-29T20:48:05.745Z,99141.11
2018-05-29T20:54:10.090Z,99179.45
2018-05-29T21:00:14.427Z,99207.80
2018-05-29T21:06:20.269Z,99229.13
2018-05-29T21:12:24.633Z,99210.98
2018-05-29T21:18:28.980Z,99182.89
2018-05-29T21:24:34.112Z,99231.57
2018-05-29T21:30:38.511Z,99276.95
2018-05-29T21:36:42.892Z,99235.62
2018-05-29T21:42:47.250Z,99206.66
2018-05-29T21:48:52.064Z,99235.27
2018-05-29T21:54:56.462Z,99236.27
2018-05-29T22:01:01.572Z,99215.16
2018-05-29T22:07:05.940Z,99152.89
2018-05-29T22:13:11.040Z,99191.63
2018-05-29T22:19:15.402Z,99210.95
2018-05-29T22:25:20.791Z,99249.14
2018-05-29T22:31:25.178Z,99218.19
2018-05-29T22:37:29.590Z,99183.48
2018-05-29T22:43:33.976Z,99147.93
2018-05-29T22:49:38.342Z,99141.28
2018-05-29T22:55:42.687Z,99159.59
2018-05-29T23:01:47.038Z,99151.91
2018-05-29T23:07:51.547Z,99131.21
2018-05-29T23:13:56.104Z,99140.11
2018-05-29T23:20:01.212Z,99137.01
2018-05-29T23:26:05.588Z,99143.02
2018-05-29T23:32:09.928Z,99139.09
2018-05-29T23:38:14.271Z,99130.06
2018-05-29T23:44:18.644Z,99116.11
2018-05-29T23:50:23.670Z,99111.62
2018-05-29T23:56:28.056Z,99109.80
